createdAt,value
2018-08-11T00:00:27.275Z,100540.93
2018-08-11T00:03:25.641Z,100541.79
2018-08-11T00:06:23.886Z,100543.80
2018-08-11T00:09:23.165Z,100535.77
2018-08-11T00:12:21.389Z,100535.87
2018-08-11T00:15:20.363Z,100534.94
2018-08-11T00:18:18.573Z,100532.08
2018-08-11T00:21:16.962Z,100522.23
2018-08-11T00:24:16.252Z,100515.63
2018-08-11T00:27:15.712Z,100513.33
2018-08-11T00:30:13.804Z,100516.00
2018-08-11T00:33:13.267Z,100516.38
2018-08-11T00:36:11.238Z,100509.92
2018-08-11T00:39:10.329Z,100515.27
2018-08-11T00:42:08.676Z,100514.98
2018-08-11T00:45:07.036Z,100519.09
2018-08-11T00:48:04.625Z,100513.23
2018-08-11T00:51:03.290Z,100515.61
2018-08-11T00:54:01.761Z,100508.58
2018-08-11T00:57:01.129Z,100517.17
2018-08-11T01:00:00.449Z,100513.25
2018-08-11T01:02:59.017Z,100509.14
2018-08-11T01:05:57.373Z,100512.48
2018-08-11T01:08:56.970Z,100508.18
2018-08-11T01:11:55.482Z,100510.47
2018-08-11T01:14:54.304Z,100511.07
2018-08-11T01:17:53.517Z,100512.78
2018-08-11T01:20:52.054Z,100502.84
2018-08-11T01:23:51.353Z,100493.49
2018-08-11T01:26:49.728Z,100492.45
2018-08-11T01:29:48.076Z,100483.46
2018-08-11T01:32:46.443Z,100484.68
2018-08-11T01:35:44.302Z,100483.77
2018-08-11T01:38:42.376Z,100480.23
2018-08-11T01:41:40.742Z,100482.05
2018-08-11T01:44:38.700Z,100482.87
2018-08-11T01:47:37.289Z,100479.33
2018-08-11T01:50:36.597Z,100470.16
2018-08-11T01:53:34.300Z,100469.30
2018-08-11T01:56:34.423Z,100483.53
2018-08-11T01:59:32.524Z,100482.67
2018-08-11T02:02:31.030Z,100486.11
2018-08-11T02:05:29.109Z,100481.75
2018-08-11T02:08:27.384Z,100476.12
2018-08-11T02:11:25.628Z,100481.46
2018-08-11T02:14:23.825Z,100473.73
2018-08-11T02:17:22.158Z,100474.30
2018-08-11T02:20:23.578Z,100474.23
2018-08-11T02:23:21.807Z,100475.75
2018-08-11T02:26:20.943Z,100468.30
2018-08-11T02:29:20.340Z,100469.35
2018-08-11T02:32:18.705Z,100467.16
2018-08-11T02:35:17.895Z,100463.72
2018-08-11T02:38:16.456Z,100461.61
2018-08-11T02:41:15.749Z,100454.08
2018-08-11T02:44:13.648Z,100454.20
2018-08-11T02:47:11.559Z,100450.67
2018-08-11T02:50:10.956Z,100450.77
2018-08-11T02:53:11.174Z,100441.03
2018-08-11T02:56:09.521Z,100447.71
2018-08-11T02:59:07.990Z,100442.46
2018-08-11T03:02:07.171Z,100438.93
2018-08-11T03:05:07.410Z,100431.48
2018-08-11T03:08:05.856Z,100434.34
2018-08-11T03:11:04.104Z,100430.43
2018-08-11T03:14:02.532Z,100432.72
2018-08-11T03:17:00.837Z,100430.52
2018-08-11T03:19:59.617Z,100425.02
2018-08-11T03:22:58.036Z,100422.34
2018-08-11T03:25:56.516Z,100431.70
2018-08-11T03:28:54.949Z,100424.25
2018-08-11T03:31:53.521Z,100423.01
2018-08-11T03:34:51.989Z,100419.09
2018-08-11T03:37:50.249Z,100412.42
2018-08-11T03:40:48.714Z,100421.09
2018-08-11T03:43:47.476Z,100417.18
2018-08-11T03:46:46.871Z,100423.86
2018-08-11T03:49:46.394Z,100424.81
2018-08-11T03:52:46.697Z,100426.62
2018-08-11T03:55:45.043Z,100424.81
2018-08-11T03:58:43.105Z,100419.94
2018-08-11T04:01:42.153Z,100420.62
2018-08-11T04:04:41.172Z,100425.09
2018-08-11T04:07:39.152Z,100416.05
2018-08-11T04:10:38.333Z,100420.14
2018-08-11T04:13:36.533Z,100430.34
2018-08-11T04:16:34.932Z,100439.70
2018-08-11T04:19:32.781Z,100445.98
2018-08-11T04:22:30.928Z,100441.21
2018-08-11T04:25:28.804Z,100435.78
2018-08-11T04:28:26.708Z,100433.02
2018-08-11T04:31:24.784Z,100436.93
2018-08-11T04:34:22.706Z,100433.13
2018-08-11T04:37:20.856Z,100428.23
2018-08-11T04:40:19.881Z,100423.86
2018-08-11T04:43:17.803Z,100430.73
2018-08-11T04:46:15.956Z,100423.26
2018-08-11T04:49:14.042Z,100417.92
2018-08-11T04:52:13.085Z,100410.86
2018-08-11T04:55:12.041Z,100417.13
2018-08-11T04:58:10.310Z,100419.42
2018-08-11T05:01:08.440Z,100420.18
2018-08-11T05:04:06.472Z,100421.89
2018-08-11T05:07:04.549Z,100415.78
2018-08-11T05:10:04.015Z,100416.54
2018-08-11T05:13:02.893Z,100413.87
2018-08-11T05:16:10.265Z,100416.40
2018-08-11T05:19:08.343Z,100419.02
2018-08-11T05:22:06.708Z,100417.86
2018-08-11T05:25:04.886Z,100426.15
2018-08-11T05:28:03.804Z,100418.70
2018-08-11T05:31:01.903Z,100416.55
2018-08-11T05:33:59.865Z,100414.42
2018-08-11T05:36:58.852Z,100416.83
2018-08-11T05:39:56.701Z,100408.67
2018-08-11T05:42:55.888Z,100407.55
2018-08-11T05:45:53.852Z,100409.64
2018-08-11T05:48:51.897Z,100410.81
2018-08-11T05:51:50.117Z,100410.23
2018-08-11T05:54:48.226Z,100401.61
2018-08-11T05:57:46.294Z,100402.75
2018-08-11T06:00:44.589Z,100405.32
2018-08-11T06:03:43.600Z,100404.84
2018-08-11T06:06:41.585Z,100406.34
2018-08-11T06:09:39.964Z,100408.65
2018-08-11T06:12:39.069Z,100401.89
2018-08-11T06:15:37.709Z,100407.20
2018-08-11T06:18:35.888Z,100403.25
2018-08-11T06:21:35.263Z,100394.86
2018-08-11T06:24:33.440Z,100393.55
2018-08-11T06:27:32.185Z,100394.19
2018-08-11T06:30:31.795Z,100391.72
2018-08-11T06:33:30.121Z,100402.06
2018-08-11T06:36:28.457Z,100394.19
2018-08-11T06:39:28.748Z,100396.71
2018-08-11T06:42:28.333Z,100388.41
2018-08-11T06:45:27.747Z,100391.08
2018-08-11T06:48:26.066Z,100399.06
2018-08-11T06:51:24.190Z,100396.17
2018-08-11T06:54:23.455Z,100397.97
2018-08-11T06:57:21.800Z,100397.34
2018-08-11T07:00:19.877Z,100398.41
2018-08-11T07:03:18.746Z,100397.66
2018-08-11T07:06:17.009Z,100406.08
2018-08-11T07:09:15.029Z,100395.80
2018-08-11T07:12:13.111Z,100401.39
2018-08-11T07:15:11.334Z,100396.55
2018-08-11T07:18:10.325Z,100399.19
2018-08-11T07:21:08.308Z,100392.05
2018-08-11T07:24:06.301Z,100394.59
2018-08-11T07:27:04.536Z,100392.66
2018-08-11T07:30:02.406Z,100390.05
2018-08-11T07:33:01.708Z,100382.70
2018-08-11T07:36:01.134Z,100383.36
2018-08-11T07:38:59.180Z,100381.95
2018-08-11T07:42:00.377Z,100380.61
2018-08-11T07:44:58.641Z,100379.86
2018-08-11T07:47:57.154Z,100379.44
2018-08-11T07:50:55.593Z,100377.68
2018-08-11T07:53:54.180Z,100381.17
2018-08-11T07:56:52.929Z,100376.41
2018-08-11T07:59:51.188Z,100374.09
2018-08-11T08:02:49.440Z,100371.17
2018-08-11T08:05:47.520Z,100372.27
2018-08-11T08:08:45.969Z,100374.92
2018-08-11T08:11:43.960Z,100369.45
2018-08-11T08:14:42.020Z,100366.75
2018-08-11T08:17:40.300Z,100364.20
2018-08-11T08:20:38.758Z,100354.07
2018-08-11T08:23:36.699Z,100353.07
2018-08-11T08:26:35.134Z,100345.14
2018-08-11T08:29:34.241Z,100349.14
2018-08-11T08:32:32.318Z,100344.13
2018-08-11T08:35:30.681Z,100334.02
2018-08-11T08:38:29.008Z,100326.13
2018-08-11T08:41:26.788Z,100325.02
2018-08-11T08:44:26.679Z,100319.95
2018-08-11T08:47:25.629Z,100314.83
2018-08-11T08:50:23.929Z,100316.65
2018-08-11T08:53:22.728Z,100315.89
2018-08-11T08:56:21.944Z,100318.59
2018-08-11T08:59:20.059Z,100313.84
2018-08-11T09:02:20.081Z,100314.70
2018-08-11T09:05:20.296Z,100317.16
2018-08-11T09:08:18.337Z,100310.19
2018-08-11T09:11:17.591Z,100310.59
2018-08-11T09:14:15.795Z,100306.75
2018-08-11T09:17:13.960Z,100306.62
2018-08-11T09:20:20.312Z,100294.14
2018-08-11T09:23:19.265Z,100286.48
2018-08-11T09:26:18.154Z,100282.78
2018-08-11T09:29:16.459Z,100285.44
2018-08-11T09:32:14.445Z,100285.22
2018-08-11T09:35:12.926Z,100288.78
2018-08-11T09:38:11.098Z,100284.36
2018-08-11T09:41:10.226Z,100282.52
2018-08-11T09:44:08.873Z,100276.64
2018-08-11T09:47:07.780Z,100274.70
2018-08-11T09:50:06.932Z,100270.34
2018-08-11T09:53:05.202Z,100274.72
2018-08-11T09:56:03.266Z,100271.19
2018-08-11T09:59:01.418Z,100259.15
2018-08-11T10:02:05.638Z,100257.68
2018-08-11T10:05:03.917Z,100256.02
2018-08-11T10:08:02.241Z,100251.80
2018-08-11T10:11:00.122Z,100251.09
2018-08-11T10:13:58.249Z,100238.13
2018-08-11T10:16:56.652Z,100237.28
2018-08-11T10:19:55.329Z,100234.90
2018-08-11T10:22:53.573Z,100232.99
2018-08-11T10:25:51.896Z,100236.05
2018-08-11T10:28:51.020Z,100230.37
2018-08-11T10:31:49.090Z,100228.91
2018-08-11T10:34:47.152Z,100220.98
2018-08-11T10:37:45.209Z,100218.77
2018-08-11T10:40:43.684Z,100212.23
2018-08-11T10:43:41.866Z,100211.99
2018-08-11T10:46:40.405Z,100203.89
2018-08-11T10:49:38.283Z,100195.66
2018-08-11T10:52:37.792Z,100192.56
2018-08-11T10:55:35.827Z,100181.37
2018-08-11T10:58:34.100Z,100179.10
2018-08-11T11:01:33.415Z,100164.02
2018-08-11T11:04:31.535Z,100148.25
2018-08-11T11:07:29.607Z,100145.42
2018-08-11T11:10:27.580Z,100142.44
2018-08-11T11:13:25.708Z,100137.62
2018-08-11T11:16:23.981Z,100143.66
2018-08-11T11:19:22.544Z,100134.31
2018-08-11T11:22:20.909Z,100139.38
2018-08-11T11:25:19.175Z,100138.19
2018-08-11T11:28:17.449Z,100139.16
2018-08-11T11:31:15.739Z,100135.61
2018-08-11T11:34:13.882Z,100127.69
2018-08-11T11:37:12.977Z,100126.22
2018-08-11T11:40:11.653Z,100126.64
2018-08-11T11:43:10.216Z,100112.92
2018-08-11T11:46:08.891Z,100110.52
2018-08-11T11:49:07.560Z,100117.25
2018-08-11T11:52:06.324Z,100109.02
2018-08-11T11:55:05.308Z,100116.11
2018-08-11T11:58:04.907Z,100112.14
2018-08-11T12:01:04.296Z,100113.74
2018-08-11T12:04:04.819Z,100105.14
2018-08-11T12:07:03.256Z,100093.88
2018-08-11T12:10:01.653Z,100081.14
2018-08-11T12:13:00.817Z,100081.64
2018-08-11T12:15:59.301Z,100084.16
2018-08-11T12:18:58.704Z,100086.52
2018-08-11T12:21:57.208Z,100093.94
2018-08-11T12:24:55.430Z,100083.16
2018-08-11T12:27:53.379Z,100089.72
2018-08-11T12:30:52.662Z,100082.20
2018-08-11T12:33:51.706Z,100083.08
2018-08-11T12:36:49.827Z,100091.36
2018-08-11T12:39:48.097Z,100087.53
2018-08-11T12:42:46.261Z,100083.45
2018-08-11T12:45:44.302Z,100081.56
2018-08-11T12:48:42.165Z,100084.34
2018-08-11T12:51:40.550Z,100097.33
2018-08-11T12:54:39.017Z,100087.73
2018-08-11T12:57:37.468Z,100082.46
2018-08-11T13:00:36.363Z,100080.19
2018-08-11T13:03:34.594Z,100079.25
2018-08-11T13:06:33.592Z,100071.22
2018-08-11T13:09:31.945Z,100075.00
2018-08-11T13:12:30.042Z,100068.05
2018-08-11T13:15:29.085Z,100061.33
2018-08-11T13:18:28.481Z,100051.52
2018-08-11T13:21:26.657Z,100044.77
2018-08-11T13:24:24.524Z,100044.47
2018-08-11T13:27:22.660Z,100043.23
2018-08-11T13:30:21.949Z,100039.27
2018-08-11T13:33:20.117Z,100039.34
2018-08-11T13:36:18.148Z,100028.16
2018-08-11T13:39:17.352Z,100031.30
2018-08-11T13:42:15.340Z,100036.05
2018-08-11T13:45:13.375Z,100040.66
2018-08-11T13:48:12.618Z,100039.63
2018-08-11T13:51:10.960Z,100040.91
2018-08-11T13:54:10.129Z,100033.96
2018-08-11T13:57:08.081Z,100041.28
2018-08-11T14:00:06.353Z,100036.94
2018-08-11T14:03:04.505Z,100044.56
2018-08-11T14:06:02.669Z,100041.16
2018-08-11T14:09:00.764Z,100046.57
2018-08-11T14:11:58.829Z,100036.73
2018-08-11T14:14:57.085Z,100031.81
2018-08-11T14:17:55.513Z,100064.48
2018-08-11T14:20:53.705Z,100075.84
2018-08-11T14:23:51.943Z,100089.55
2018-08-11T14:26:50.865Z,100110.35
2018-08-11T14:29:48.892Z,100127.64
2018-08-11T14:32:49.281Z,100108.23
2018-08-11T14:35:47.669Z,100145.06
2018-08-11T14:38:47.147Z,100137.28
2018-08-11T14:41:46.254Z,100139.53
2018-08-11T14:44:45.420Z,100137.66
2018-08-11T14:47:45.475Z,100133.44
2018-08-11T14:50:43.785Z,100121.98
2018-08-11T14:53:41.849Z,100153.01
2018-08-11T14:56:40.937Z,100131.55
2018-08-11T14:59:40.714Z,100119.33
2018-08-11T15:02:39.284Z,100107.11
2018-08-11T15:05:37.568Z,100100.91
2018-08-11T15:08:37.173Z,100109.53
2018-08-11T15:11:35.808Z,100103.83
2018-08-11T15:14:34.085Z,100102.58
2018-08-11T15:17:33.799Z,100109.73
2018-08-11T15:20:32.780Z,100114.45
2018-08-11T15:23:31.763Z,100112.65
2018-08-11T15:26:32.001Z,100106.94
2018-08-11T15:29:30.383Z,100111.59
2018-08-11T15:32:28.918Z,100107.27
2018-08-11T15:35:28.090Z,100103.18
2018-08-11T15:38:26.472Z,100095.66
2018-08-11T15:41:24.991Z,100095.73
2018-08-11T15:44:24.563Z,100100.95
2018-08-11T15:47:23.916Z,100101.08
2018-08-11T15:50:22.845Z,100115.78
2018-08-11T15:53:21.054Z,100123.88
2018-08-11T15:56:19.337Z,100127.73
2018-08-11T15:59:17.416Z,100132.34
2018-08-11T16:02:16.667Z,100107.08
2018-08-11T16:05:15.766Z,100102.80
2018-08-11T16:08:14.328Z,100097.63
2018-08-11T16:11:13.013Z,100096.33
2018-08-11T16:14:13.474Z,100110.61
2018-08-11T16:17:11.655Z,100107.44
2018-08-11T16:20:09.680Z,100100.31
2018-08-11T16:23:08.830Z,100098.53
2018-08-11T16:26:07.360Z,100093.79
2018-08-11T16:29:05.314Z,100094.54
2018-08-11T16:32:03.404Z,100088.44
2018-08-11T16:35:02.129Z,100085.70
2018-08-11T16:38:00.345Z,100078.00
2018-08-11T16:40:59.948Z,100076.50
2018-08-11T16:43:58.099Z,100079.73
2018-08-11T16:46:56.262Z,100079.16
2018-08-11T16:49:54.260Z,100083.81
2018-08-11T16:52:53.567Z,100069.89
2018-08-11T16:55:51.589Z,100067.67
2018-08-11T16:58:50.088Z,100068.88
2018-08-11T17:01:48.709Z,100070.63
2018-08-11T17:04:46.660Z,100066.58
2018-08-11T17:07:44.830Z,100066.96
2018-08-11T17:10:43.916Z,100077.12
2018-08-11T17:13:42.089Z,100076.46
2018-08-11T17:16:40.278Z,100074.77
2018-08-11T17:19:38.541Z,100075.20
2018-08-11T17:22:37.914Z,100082.38
2018-08-11T17:25:36.763Z,100078.56
2018-08-11T17:28:35.972Z,100084.34
2018-08-11T17:31:35.097Z,100087.94
2018-08-11T17:34:33.023Z,100085.94
2018-08-11T17:37:31.106Z,100089.69
2018-08-11T17:40:29.205Z,100093.73
2018-08-11T17:43:27.178Z,100093.06
2018-08-11T17:46:25.501Z,100100.69
2018-08-11T17:49:24.762Z,100098.11
2018-08-11T17:52:22.999Z,100101.31
2018-08-11T17:55:23.951Z,100104.14
2018-08-11T17:58:22.175Z,100109.29
2018-08-11T18:01:20.484Z,100112.27
2018-08-11T18:04:19.747Z,100102.42
2018-08-11T18:07:17.841Z,100109.50
2018-08-11T18:10:15.950Z,100110.98
2018-08-11T18:13:13.822Z,100115.98
2018-08-11T18:16:15.975Z,100124.66
2018-08-11T18:19:14.193Z,100123.09
2018-08-11T18:22:13.409Z,100131.75
2018-08-11T18:25:11.580Z,100135.36
2018-08-11T18:28:10.030Z,100142.04
2018-08-11T18:31:07.827Z,100147.22
2018-08-11T18:34:06.869Z,100153.23
2018-08-11T18:37:04.848Z,100158.89
2018-08-11T18:40:02.809Z,100159.23
2018-08-11T18:43:01.027Z,100164.54
2018-08-11T18:46:00.145Z,100162.03
2018-08-11T18:48:58.661Z,100173.73
2018-08-11T18:51:58.125Z,100179.09
2018-08-11T18:54:57.222Z,100174.44
2018-08-11T18:57:56.293Z,100184.90
2018-08-11T19:00:54.893Z,100180.59
2018-08-11T19:03:53.334Z,100191.49
2018-08-11T19:06:51.864Z,100193.06
2018-08-11T19:09:50.050Z,100198.42
2018-08-11T19:12:48.812Z,100190.46
2018-08-11T19:15:47.447Z,100195.08
2018-08-11T19:18:46.875Z,100194.56
2018-08-11T19:21:45.161Z,100185.70
2018-08-11T19:24:43.299Z,100192.63
2018-08-11T19:27:42.216Z,100192.25
2018-08-11T19:30:40.516Z,100194.41
2018-08-11T19:33:39.050Z,100195.83
2018-08-11T19:36:38.302Z,100203.83
2018-08-11T19:39:36.522Z,100199.81
2018-08-11T19:42:35.097Z,100201.00
2018-08-11T19:45:34.882Z,100200.30
2018-08-11T19:48:33.200Z,100209.97
2018-08-11T19:51:31.294Z,100211.23
2018-08-11T19:54:29.932Z,100213.24
2018-08-11T19:57:28.841Z,100222.67
2018-08-11T20:00:29.066Z,100223.84
2018-08-11T20:03:27.904Z,100218.30
2018-08-11T20:06:26.477Z,100224.60
2018-08-11T20:09:24.504Z,100225.69
2018-08-11T20:12:23.218Z,100224.63
2018-08-11T20:15:22.202Z,100225.96
2018-08-11T20:18:20.380Z,100228.11
2018-08-11T20:21:19.256Z,100229.45
2018-08-11T20:24:18.336Z,100234.04
2018-08-11T20:27:16.797Z,100237.69
2018-08-11T20:30:14.768Z,100239.98
2018-08-11T20:33:12.935Z,100238.45
2018-08-11T20:36:11.195Z,100238.55
2018-08-11T20:39:09.474Z,100237.87
2018-08-11T20:42:07.732Z,100236.33
2018-08-11T20:45:08.128Z,100245.11
2018-08-11T20:48:06.449Z,100247.41
2018-08-11T20:51:04.949Z,100247.55
2018-08-11T20:54:02.939Z,100251.45
2018-08-11T20:57:02.186Z,100247.25
2018-08-11T21:00:00.628Z,100251.59
2018-08-11T21:02:58.554Z,100248.38
2018-08-11T21:05:56.611Z,100260.47
2018-08-11T21:08:55.103Z,100252.32
2018-08-11T21:11:53.646Z,100261.11
2018-08-11T21:14:51.701Z,100263.44
2018-08-11T21:17:49.877Z,100264.05
2018-08-11T21:20:47.710Z,100261.95
2018-08-11T21:23:45.846Z,100266.37
2018-08-11T21:26:44.144Z,100270.17
2018-08-11T21:29:42.405Z,100270.55
2018-08-11T21:32:40.500Z,100275.31
2018-08-11T21:35:38.752Z,100275.20
2018-08-11T21:38:38.016Z,100271.50
2018-08-11T21:41:36.071Z,100277.78
2018-08-11T21:44:40.287Z,100284.55
2018-08-11T21:47:39.428Z,100283.97
2018-08-11T21:50:37.209Z,100287.80
2018-08-11T21:53:35.305Z,100286.34
2018-08-11T21:56:33.626Z,100284.27
2018-08-11T21:59:31.694Z,100295.48
2018-08-11T22:02:30.183Z,100289.19
2018-08-11T22:05:28.692Z,100296.68
2018-08-11T22:08:27.431Z,100296.03
2018-08-11T22:11:25.862Z,100294.11
2018-08-11T22:14:24.171Z,100301.24
2018-08-11T22:17:23.114Z,100299.64
2018-08-11T22:20:21.701Z,100306.52
2018-08-11T22:23:21.278Z,100309.48
2018-08-11T22:26:19.373Z,100312.70
2018-08-11T22:29:17.568Z,100315.81
2018-08-11T22:32:16.083Z,100311.52
2018-08-11T22:35:14.285Z,100306.84
2018-08-11T22:38:12.547Z,100316.13
2018-08-11T22:41:10.891Z,100315.14
2018-08-11T22:44:09.694Z,100317.08
2018-08-11T22:47:08.830Z,100316.55
2018-08-11T22:50:07.061Z,100318.56
2018-08-11T22:53:05.039Z,100320.40
2018-08-11T22:56:03.138Z,100323.40
2018-08-11T22:59:02.526Z,100326.20
2018-08-11T23:02:01.044Z,100325.41
2018-08-11T23:04:59.261Z,100332.14
2018-08-11T23:07:57.424Z,100331.84
2018-08-11T23:10:55.688Z,100334.80
2018-08-11T23:13:53.939Z,100325.88
2018-08-11T23:16:53.144Z,100332.70
2018-08-11T23:19:51.708Z,100337.48
2018-08-11T23:22:52.122Z,100335.03
2018-08-11T23:25:50.681Z,100330.47
2018-08-11T23:28:49.199Z,100321.71
2018-08-11T23:31:47.255Z,100325.23
2018-08-11T23:34:45.458Z,100323.59
2018-08-11T23:37:43.155Z,100324.22
2018-08-11T23:40:41.463Z,100322.81
2018-08-11T23:43:40.800Z,100321.41
2018-08-11T23:46:39.158Z,100325.55
2018-08-11T23:49:38.524Z,100324.33
2018-08-11T23:52:36.811Z,100324.00
2018-08-11T23:55:37.117Z,100326.50
2018-08-11T23:58:35.793Z,100322.34
